sensor_id;sensor_type;location;lat;lon;timestamp;P1;durP1;ratioP1;P2;durP2;ratioP2
53253;SDS011;39148;53.332;6.922;2023-04-24T00:00:10;2.85;;;1.00;;
53253;SDS011;39148;53.332;6.922;2023-04-24T00:02:40;3.58;;;1.50;;
53253;SDS011;39148;53.332;6.922;2023-04-24T00:05:07;2.83;;;1.08;;
53253;SDS011;39148;53.332;6.922;2023-04-24T00:07:33;2.78;;;1.25;;
53253;SDS011;39148;53.332;6.922;2023-04-24T00:10:00;2.08;;;1.10;;
53253;SDS011;39148;53.332;6.922;2023-04-24T00:12:26;2.25;;;1.30;;
53253;SDS011;39148;53.332;6.922;2023-04-24T00:14:52;2.40;;;1.25;;
53253;SDS011;39148;53.332;6.922;2023-04-24T00:17:18;2.28;;;1.00;;
53253;SDS011;39148;53.332;6.922;2023-04-24T00:19:47;3.58;;;1.10;;
53253;SDS011;39148;53.332;6.922;2023-04-24T00:22:13;3.35;;;1.50;;
53253;SDS011;39148;53.332;6.922;2023-04-24T00:24:39;2.28;;;1.10;;
53253;SDS011;39148;53.332;6.922;2023-04-24T00:27:05;3.47;;;1.45;;
53253;SDS011;39148;53.332;6.922;2023-04-24T00:29:31;3.60;;;1.20;;
53253;SDS011;39148;53.332;6.922;2023-04-24T00:31:57;4.15;;;1.20;;
53253;SDS011;39148;53.332;6.922;2023-04-24T00:34:22;2.80;;;1.30;;
53253;SDS011;39148;53.332;6.922;2023-04-24T00:36:49;2.97;;;1.23;;
53253;SDS011;39148;53.332;6.922;2023-04-24T00:39:20;2.17;;;1.13;;
53253;SDS011;39148;53.332;6.922;2023-04-24T00:41:46;1.58;;;0.93;;
53253;SDS011;39148;53.332;6.922;2023-04-24T00:44:13;3.90;;;1.20;;
53253;SDS011;39148;53.332;6.922;2023-04-24T00:46:39;3.35;;;1.10;;
53253;SDS011;39148;53.332;6.922;2023-04-24T00:49:05;2.25;;;1.10;;
53253;SDS011;39148;53.332;6.922;2023-04-24T00:51:31;1.98;;;1.10;;
53253;SDS011;39148;53.332;6.922;2023-04-24T00:53:58;1.75;;;0.88;;
53253;SDS011;39148;53.332;6.922;2023-04-24T00:56:25;2.00;;;0.82;;
53253;SDS011;39148;53.332;6.922;2023-04-24T00:58:51;2.13;;;0.90;;
53253;SDS011;39148;53.332;6.922;2023-04-24T01:01:18;1.30;;;0.70;;
53253;SDS011;39148;53.332;6.922;2023-04-24T01:03:46;1.85;;;0.70;;
53253;SDS011;39148;53.332;6.922;2023-04-24T01:06:13;1.35;;;0.68;;
53253;SDS011;39148;53.332;6.922;2023-04-24T01:08:40;1.13;;;0.60;;
53253;SDS011;39148;53.332;6.922;2023-04-24T01:11:07;0.90;;;0.60;;
53253;SDS011;39148;53.332;6.922;2023-04-24T01:13:33;2.60;;;0.85;;
53253;SDS011;39148;53.332;6.922;2023-04-24T01:15:59;1.42;;;0.60;;
53253;SDS011;39148;53.332;6.922;2023-04-24T01:18:26;1.17;;;0.60;;
53253;SDS011;39148;53.332;6.922;2023-04-24T01:20:53;0.90;;;0.40;;
53253;SDS011;39148;53.332;6.922;2023-04-24T01:23:22;1.27;;;0.50;;
53253;SDS011;39148;53.332;6.922;2023-04-24T01:25:49;1.13;;;0.60;;
53253;SDS011;39148;53.332;6.922;2023-04-24T01:28:15;0.50;;;0.45;;
53253;SDS011;39148;53.332;6.922;2023-04-24T01:30:42;1.85;;;0.47;;
53253;SDS011;39148;53.332;6.922;2023-04-24T01:33:08;2.17;;;0.60;;
53253;SDS011;39148;53.332;6.922;2023-04-24T01:35:34;0.45;;;0.32;;
53253;SDS011;39148;53.332;6.922;2023-04-24T01:38:01;0.95;;;0.30;;
53253;SDS011;39148;53.332;6.922;2023-04-24T01:40:27;0.52;;;0.30;;
53253;SDS011;39148;53.332;6.922;2023-04-24T01:42:53;1.00;;;0.50;;
53253;SDS011;39148;53.332;6.922;2023-04-24T01:45:18;0.88;;;0.40;;
53253;SDS011;39148;53.332;6.922;2023-04-24T01:47:45;1.15;;;0.55;;
53253;SDS011;39148;53.332;6.922;2023-04-24T01:50:11;1.25;;;0.57;;
53253;SDS011;39148;53.332;6.922;2023-04-24T01:52:37;0.68;;;0.30;;
53253;SDS011;39148;53.332;6.922;2023-04-24T01:55:03;0.65;;;0.35;;
53253;SDS011;39148;53.332;6.922;2023-04-24T01:57:30;0.75;;;0.40;;
53253;SDS011;39148;53.332;6.922;2023-04-24T01:59:56;0.52;;;0.30;;
53253;SDS011;39148;53.332;6.922;2023-04-24T02:02:23;1.33;;;0.30;;
53253;SDS011;39148;53.332;6.922;2023-04-24T02:04:55;0.52;;;0.30;;
53253;SDS011;39148;53.332;6.922;2023-04-24T02:07:21;0.70;;;0.30;;
53253;SDS011;39148;53.332;6.922;2023-04-24T02:09:47;0.65;;;0.28;;
53253;SDS011;39148;53.332;6.922;2023-04-24T02:12:13;1.08;;;0.30;;
53253;SDS011;39148;53.332;6.922;2023-04-24T02:14:39;0.70;;;0.32;;
53253;SDS011;39148;53.332;6.922;2023-04-24T02:17:05;0.65;;;0.30;;
53253;SDS011;39148;53.332;6.922;2023-04-24T02:19:31;1.50;;;0.60;;
53253;SDS011;39148;53.332;6.922;2023-04-24T02:21:57;0.30;;;0.30;;
53253;SDS011;39148;53.332;6.922;2023-04-24T02:24:23;0.70;;;0.30;;
53253;SDS011;39148;53.332;6.922;2023-04-24T02:26:48;0.43;;;0.30;;
53253;SDS011;39148;53.332;6.922;2023-04-24T02:29:14;0.70;;;0.30;;
53253;SDS011;39148;53.332;6.922;2023-04-24T02:31:40;0.60;;;0.40;;
53253;SDS011;39148;53.332;6.922;2023-04-24T02:34:06;1.20;;;0.60;;
53253;SDS011;39148;53.332;6.922;2023-04-24T02:36:31;0.50;;;0.40;;
53253;SDS011;39148;53.332;6.922;2023-04-24T02:38:57;1.08;;;0.30;;
53253;SDS011;39148;53.332;6.922;2023-04-24T02:41:23;0.38;;;0.30;;
53253;SDS011;39148;53.332;6.922;2023-04-24T02:43:49;0.82;;;0.32;;
53253;SDS011;39148;53.332;6.922;2023-04-24T02:46:15;0.20;;;0.20;;
53253;SDS011;39148;53.332;6.922;2023-04-24T02:48:40;0.93;;;0.25;;
53253;SDS011;39148;53.332;6.922;2023-04-24T02:51:07;0.95;;;0.40;;
53253;SDS011;39148;53.332;6.922;2023-04-24T02:53:33;0.52;;;0.40;;
53253;SDS011;39148;53.332;6.922;2023-04-24T02:55:59;0.77;;;0.40;;
53253;SDS011;39148;53.332;6.922;2023-04-24T02:58:24;0.57;;;0.45;;
53253;SDS011;39148;53.332;6.922;2023-04-24T03:00:54;0.43;;;0.30;;
53253;SDS011;39148;53.332;6.922;2023-04-24T03:03:21;0.50;;;0.40;;
53253;SDS011;39148;53.332;6.922;2023-04-24T03:05:47;0.40;;;0.30;;
53253;SDS011;39148;53.332;6.922;2023-04-24T03:08:13;1.60;;;0.40;;
53253;SDS011;39148;53.332;6.922;2023-04-24T03:10:39;0.75;;;0.50;;
53253;SDS011;39148;53.332;6.922;2023-04-24T03:13:05;0.57;;;0.40;;
53253;SDS011;39148;53.332;6.922;2023-04-24T03:15:31;0.68;;;0.50;;
53253;SDS011;39148;53.332;6.922;2023-04-24T03:17:56;0.50;;;0.40;;
53253;SDS011;39148;53.332;6.922;2023-04-24T03:20:22;0.73;;;0.60;;
53253;SDS011;39148;53.332;6.922;2023-04-24T03:22:48;0.50;;;0.40;;
53253;SDS011;39148;53.332;6.922;2023-04-24T03:25:14;0.73;;;0.50;;
53253;SDS011;39148;53.332;6.922;2023-04-24T03:27:40;1.38;;;0.60;;
53253;SDS011;39148;53.332;6.922;2023-04-24T03:30:06;0.88;;;0.50;;
53253;SDS011;39148;53.332;6.922;2023-04-24T03:32:33;1.17;;;0.70;;
53253;SDS011;39148;53.332;6.922;2023-04-24T03:34:58;1.17;;;0.80;;
53253;SDS011;39148;53.332;6.922;2023-04-24T03:37:24;0.95;;;0.70;;
53253;SDS011;39148;53.332;6.922;2023-04-24T03:39:51;2.08;;;0.60;;
53253;SDS011;39148;53.332;6.922;2023-04-24T03:42:17;1.00;;;0.73;;
53253;SDS011;39148;53.332;6.922;2023-04-24T03:44:43;1.15;;;0.70;;
53253;SDS011;39148;53.332;6.922;2023-04-24T03:47:09;2.58;;;0.80;;
53253;SDS011;39148;53.332;6.922;2023-04-24T03:49:35;1.27;;;0.90;;
53253;SDS011;39148;53.332;6.922;2023-04-24T03:52:01;1.48;;;0.90;;
53253;SDS011;39148;53.332;6.922;2023-04-24T03:54:27;1.75;;;0.95;;
53253;SDS011;39148;53.332;6.922;2023-04-24T03:56:53;1.77;;;1.00;;
53253;SDS011;39148;53.332;6.922;2023-04-24T03:59:18;1.45;;;0.90;;
53253;SDS011;39148;53.332;6.922;2023-04-24T04:01:44;1.27;;;0.88;;
53253;SDS011;39148;53.332;6.922;2023-04-24T04:04:10;1.85;;;0.88;;
53253;SDS011;39148;53.332;6.922;2023-04-24T04:06:37;1.95;;;1.10;;
53253;SDS011;39148;53.332;6.922;2023-04-24T04:09:02;1.80;;;0.90;;
53253;SDS011;39148;53.332;6.922;2023-04-24T04:11:29;1.92;;;1.08;;
53253;SDS011;39148;53.332;6.922;2023-04-24T04:13:55;1.42;;;1.00;;
53253;SDS011;39148;53.332;6.922;2023-04-24T04:16:22;2.03;;;1.10;;
53253;SDS011;39148;53.332;6.922;2023-04-24T04:18:48;1.30;;;0.95;;
53253;SDS011;39148;53.332;6.922;2023-04-24T04:21:14;2.15;;;1.20;;
53253;SDS011;39148;53.332;6.922;2023-04-24T04:23:40;1.90;;;1.10;;
53253;SDS011;39148;53.332;6.922;2023-04-24T04:26:06;2.03;;;1.30;;
53253;SDS011;39148;53.332;6.922;2023-04-24T04:28:33;1.58;;;1.00;;
53253;SDS011;39148;53.332;6.922;2023-04-24T04:30:59;1.98;;;1.17;;
53253;SDS011;39148;53.332;6.922;2023-04-24T04:33:26;1.98;;;1.10;;
53253;SDS011;39148;53.332;6.922;2023-04-24T04:35:52;1.77;;;1.10;;
53253;SDS011;39148;53.332;6.922;2023-04-24T04:38:18;2.03;;;1.17;;
53253;SDS011;39148;53.332;6.922;2023-04-24T04:40:44;1.42;;;1.00;;
53253;SDS011;39148;53.332;6.922;2023-04-24T04:43:10;3.67;;;1.05;;
53253;SDS011;39148;53.332;6.922;2023-04-24T04:45:39;1.98;;;1.08;;
53253;SDS011;39148;53.332;6.922;2023-04-24T04:48:06;2.60;;;1.38;;
53253;SDS011;39148;53.332;6.922;2023-04-24T04:50:34;1.70;;;1.13;;
53253;SDS011;39148;53.332;6.922;2023-04-24T04:53:00;2.33;;;1.02;;
53253;SDS011;39148;53.332;6.922;2023-04-24T04:55:26;1.75;;;1.08;;
53253;SDS011;39148;53.332;6.922;2023-04-24T04:57:52;1.42;;;1.00;;
53253;SDS011;39148;53.332;6.922;2023-04-24T05:00:18;2.03;;;1.00;;
53253;SDS011;39148;53.332;6.922;2023-04-24T05:02:44;1.67;;;1.00;;
53253;SDS011;39148;53.332;6.922;2023-04-24T05:05:10;2.90;;;1.25;;
53253;SDS011;39148;53.332;6.922;2023-04-24T05:07:36;1.73;;;1.05;;
53253;SDS011;39148;53.332;6.922;2023-04-24T05:10:02;1.73;;;1.10;;
53253;SDS011;39148;53.332;6.922;2023-04-24T05:12:28;1.63;;;0.90;;
53253;SDS011;39148;53.332;6.922;2023-04-24T05:14:54;1.50;;;1.08;;
53253;SDS011;39148;53.332;6.922;2023-04-24T05:17:20;1.70;;;1.00;;
53253;SDS011;39148;53.332;6.922;2023-04-24T05:19:45;1.67;;;0.90;;
53253;SDS011;39148;53.332;6.922;2023-04-24T05:22:11;1.60;;;1.05;;
53253;SDS011;39148;53.332;6.922;2023-04-24T05:24:37;1.58;;;1.08;;
53253;SDS011;39148;53.332;6.922;2023-04-24T05:27:04;1.85;;;1.10;;
53253;SDS011;39148;53.332;6.922;2023-04-24T05:29:30;1.98;;;1.20;;
53253;SDS011;39148;53.332;6.922;2023-04-24T05:31:57;1.80;;;1.00;;
53253;SDS011;39148;53.332;6.922;2023-04-24T05:34:23;3.55;;;1.48;;
53253;SDS011;39148;53.332;6.922;2023-04-24T05:36:48;2.47;;;1.33;;
53253;SDS011;39148;53.332;6.922;2023-04-24T05:39:15;2.22;;;1.20;;
53253;SDS011;39148;53.332;6.922;2023-04-24T05:41:42;1.80;;;1.17;;
53253;SDS011;39148;53.332;6.922;2023-04-24T05:44:08;2.15;;;1.30;;
53253;SDS011;39148;53.332;6.922;2023-04-24T05:46:34;1.55;;;1.10;;
53253;SDS011;39148;53.332;6.922;2023-04-24T05:49:00;1.95;;;1.20;;
53253;SDS011;39148;53.332;6.922;2023-04-24T05:51:27;3.03;;;1.20;;
53253;SDS011;39148;53.332;6.922;2023-04-24T05:53:53;1.38;;;1.08;;
53253;SDS011;39148;53.332;6.922;2023-04-24T05:56:19;3.20;;;1.13;;
53253;SDS011;39148;53.332;6.922;2023-04-24T05:58:45;1.65;;;0.95;;
53253;SDS011;39148;53.332;6.922;2023-04-24T06:01:12;1.65;;;0.82;;
53253;SDS011;39148;53.332;6.922;2023-04-24T06:03:39;0.93;;;0.77;;
53253;SDS011;39148;53.332;6.922;2023-04-24T06:06:05;1.40;;;1.02;;
53253;SDS011;39148;53.332;6.922;2023-04-24T06:08:32;1.10;;;0.75;;
53253;SDS011;39148;53.332;6.922;2023-04-24T06:10:58;0.90;;;0.70;;
53253;SDS011;39148;53.332;6.922;2023-04-24T06:13:24;1.60;;;0.80;;
53253;SDS011;39148;53.332;6.922;2023-04-24T06:15:50;1.90;;;0.80;;
53253;SDS011;39148;53.332;6.922;2023-04-24T06:18:16;1.33;;;0.90;;
53253;SDS011;39148;53.332;6.922;2023-04-24T06:20:42;4.35;;;0.80;;
53253;SDS011;39148;53.332;6.922;2023-04-24T06:23:08;0.90;;;0.60;;
53253;SDS011;39148;53.332;6.922;2023-04-24T06:25:33;1.58;;;0.63;;
53253;SDS011;39148;53.332;6.922;2023-04-24T06:28:00;1.38;;;0.63;;
53253;SDS011;39148;53.332;6.922;2023-04-24T06:30:26;2.38;;;0.50;;
53253;SDS011;39148;53.332;6.922;2023-04-24T06:32:53;1.30;;;0.60;;
53253;SDS011;39148;53.332;6.922;2023-04-24T06:35:19;2.38;;;0.60;;
53253;SDS011;39148;53.332;6.922;2023-04-24T06:37:45;1.00;;;0.65;;
53253;SDS011;39148;53.332;6.922;2023-04-24T06:40:11;0.95;;;0.57;;
53253;SDS011;39148;53.332;6.922;2023-04-24T06:42:37;1.05;;;0.68;;
53253;SDS011;39148;53.332;6.922;2023-04-24T06:45:03;2.53;;;0.88;;
53253;SDS011;39148;53.332;6.922;2023-04-24T06:47:30;1.75;;;0.70;;
53253;SDS011;39148;53.332;6.922;2023-04-24T06:49:55;1.52;;;0.63;;
53253;SDS011;39148;53.332;6.922;2023-04-24T06:52:22;2.00;;;0.70;;
53253;SDS011;39148;53.332;6.922;2023-04-24T06:54:48;1.75;;;0.80;;
53253;SDS011;39148;53.332;6.922;2023-04-24T06:57:14;1.70;;;0.73;;
53253;SDS011;39148;53.332;6.922;2023-04-24T06:59:41;1.88;;;0.88;;
53253;SDS011;39148;53.332;6.922;2023-04-24T07:02:07;1.55;;;0.90;;
53253;SDS011;39148;53.332;6.922;2023-04-24T07:04:33;1.50;;;0.80;;
53253;SDS011;39148;53.332;6.922;2023-04-24T07:06:59;1.55;;;0.80;;
53253;SDS011;39148;53.332;6.922;2023-04-24T07:09:26;1.13;;;0.60;;
53253;SDS011;39148;53.332;6.922;2023-04-24T07:11:52;2.55;;;0.90;;
53253;SDS011;39148;53.332;6.922;2023-04-24T07:14:18;2.03;;;0.88;;
53253;SDS011;39148;53.332;6.922;2023-04-24T07:16:45;1.70;;;0.75;;
53253;SDS011;39148;53.332;6.922;2023-04-24T07:19:14;1.27;;;0.73;;
53253;SDS011;39148;53.332;6.922;2023-04-24T07:21:40;2.10;;;1.00;;
53253;SDS011;39148;53.332;6.922;2023-04-24T07:24:06;1.70;;;0.90;;
53253;SDS011;39148;53.332;6.922;2023-04-24T07:26:36;1.30;;;0.90;;
53253;SDS011;39148;53.332;6.922;2023-04-24T07:29:03;1.75;;;0.82;;
53253;SDS011;39148;53.332;6.922;2023-04-24T07:31:28;2.05;;;0.85;;
53253;SDS011;39148;53.332;6.922;2023-04-24T07:33:54;2.03;;;1.00;;
53253;SDS011;39148;53.332;6.922;2023-04-24T07:36:23;2.13;;;1.00;;
53253;SDS011;39148;53.332;6.922;2023-04-24T07:38:49;2.55;;;1.08;;
53253;SDS011;39148;53.332;6.922;2023-04-24T07:41:15;2.05;;;1.00;;
53253;SDS011;39148;53.332;6.922;2023-04-24T07:43:41;1.83;;;0.82;;
53253;SDS011;39148;53.332;6.922;2023-04-24T07:46:07;1.85;;;0.90;;
53253;SDS011;39148;53.332;6.922;2023-04-24T07:48:34;1.35;;;0.73;;
53253;SDS011;39148;53.332;6.922;2023-04-24T07:51:00;3.05;;;0.75;;
53253;SDS011;39148;53.332;6.922;2023-04-24T07:53:26;2.15;;;0.60;;
53253;SDS011;39148;53.332;6.922;2023-04-24T07:55:53;1.90;;;0.70;;
53253;SDS011;39148;53.332;6.922;2023-04-24T07:58:20;1.52;;;0.60;;
53253;SDS011;39148;53.332;6.922;2023-04-24T08:00:46;1.63;;;0.90;;
53253;SDS011;39148;53.332;6.922;2023-04-24T08:03:12;1.60;;;0.77;;
53253;SDS011;39148;53.332;6.922;2023-04-24T08:05:38;2.30;;;0.88;;
53253;SDS011;39148;53.332;6.922;2023-04-24T08:08:05;1.65;;;0.80;;
53253;SDS011;39148;53.332;6.922;2023-04-24T08:10:31;2.97;;;0.88;;
53253;SDS011;39148;53.332;6.922;2023-04-24T08:12:57;1.50;;;0.70;;
53253;SDS011;39148;53.332;6.922;2023-04-24T08:15:23;3.22;;;0.73;;
53253;SDS011;39148;53.332;6.922;2023-04-24T08:17:49;2.83;;;0.70;;
53253;SDS011;39148;53.332;6.922;2023-04-24T08:20:15;2.78;;;0.70;;
53253;SDS011;39148;53.332;6.922;2023-04-24T08:22:42;3.22;;;0.65;;
53253;SDS011;39148;53.332;6.922;2023-04-24T08:25:09;1.88;;;0.70;;
53253;SDS011;39148;53.332;6.922;2023-04-24T08:27:36;1.75;;;0.90;;
53253;SDS011;39148;53.332;6.922;2023-04-24T08:30:02;3.72;;;0.77;;
53253;SDS011;39148;53.332;6.922;2023-04-24T08:32:29;1.92;;;0.80;;
53253;SDS011;39148;53.332;6.922;2023-04-24T08:34:55;2.85;;;1.00;;
53253;SDS011;39148;53.332;6.922;2023-04-24T08:37:25;3.58;;;1.13;;
53253;SDS011;39148;53.332;6.922;2023-04-24T08:39:51;3.07;;;0.93;;
53253;SDS011;39148;53.332;6.922;2023-04-24T08:42:18;3.28;;;0.93;;
53253;SDS011;39148;53.332;6.922;2023-04-24T08:44:44;2.65;;;1.02;;
53253;SDS011;39148;53.332;6.922;2023-04-24T08:47:11;5.47;;;1.20;;
53253;SDS011;39148;53.332;6.922;2023-04-24T08:49:37;5.40;;;1.30;;
53253;SDS011;39148;53.332;6.922;2023-04-24T08:52:07;3.50;;;1.20;;
53253;SDS011;39148;53.332;6.922;2023-04-24T08:54:35;4.40;;;1.58;;
53253;SDS011;39148;53.332;6.922;2023-04-24T08:57:02;4.15;;;1.60;;
53253;SDS011;39148;53.332;6.922;2023-04-24T08:59:29;3.95;;;1.85;;
53253;SDS011;39148;53.332;6.922;2023-04-24T09:01:56;4.80;;;1.83;;
53253;SDS011;39148;53.332;6.922;2023-04-24T09:04:23;5.15;;;2.33;;
53253;SDS011;39148;53.332;6.922;2023-04-24T09:06:58;4.70;;;2.63;;
53253;SDS011;39148;53.332;6.922;2023-04-24T09:09:25;9.18;;;3.80;;
53253;SDS011;39148;53.332;6.922;2023-04-24T09:11:51;7.30;;;4.38;;
53253;SDS011;39148;53.332;6.922;2023-04-24T09:14:20;8.63;;;4.65;;
53253;SDS011;39148;53.332;6.922;2023-04-24T09:16:48;9.88;;;4.47;;
53253;SDS011;39148;53.332;6.922;2023-04-24T09:19:14;8.75;;;5.47;;
53253;SDS011;39148;53.332;6.922;2023-04-24T09:21:39;9.77;;;5.00;;
53253;SDS011;39148;53.332;6.922;2023-04-24T09:24:07;13.70;;;5.85;;
53253;SDS011;39148;53.332;6.922;2023-04-24T09:26:45;11.70;;;5.45;;
53253;SDS011;39148;53.332;6.922;2023-04-24T09:29:17;12.75;;;6.05;;
53253;SDS011;39148;53.332;6.922;2023-04-24T09:31:44;10.18;;;4.97;;
53253;SDS011;39148;53.332;6.922;2023-04-24T09:34:10;10.48;;;5.28;;
53253;SDS011;39148;53.332;6.922;2023-04-24T09:36:38;13.38;;;5.53;;
53253;SDS011;39148;53.332;6.922;2023-04-24T09:39:06;10.05;;;5.78;;
53253;SDS011;39148;53.332;6.922;2023-04-24T09:41:34;11.50;;;5.53;;
53253;SDS011;39148;53.332;6.922;2023-04-24T09:44:10;11.20;;;5.82;;
53253;SDS011;39148;53.332;6.922;2023-04-24T09:46:45;11.07;;;5.43;;
53253;SDS011;39148;53.332;6.922;2023-04-24T09:49:16;12.13;;;5.97;;
53253;SDS011;39148;53.332;6.922;2023-04-24T09:51:46;11.02;;;5.72;;
53253;SDS011;39148;53.332;6.922;2023-04-24T09:54:18;10.18;;;5.28;;
53253;SDS011;39148;53.332;6.922;2023-04-24T09:56:46;9.07;;;5.40;;
53253;SDS011;39148;53.332;6.922;2023-04-24T09:59:17;8.73;;;5.43;;
53253;SDS011;39148;53.332;6.922;2023-04-24T10:01:45;9.07;;;5.20;;
53253;SDS011;39148;53.332;6.922;2023-04-24T10:06:48;10.27;;;5.03;;
53253;SDS011;39148;53.332;6.922;2023-04-24T10:09:19;8.52;;;4.72;;
53253;SDS011;39148;53.332;6.922;2023-04-24T10:11:46;9.25;;;4.85;;
53253;SDS011;39148;53.332;6.922;2023-04-24T10:14:21;9.20;;;4.70;;
53253;SDS011;39148;53.332;6.922;2023-04-24T10:16:48;8.32;;;4.60;;
53253;SDS011;39148;53.332;6.922;2023-04-24T10:19:15;10.02;;;4.68;;
53253;SDS011;39148;53.332;6.922;2023-04-24T10:21:44;6.60;;;4.03;;
53253;SDS011;39148;53.332;6.922;2023-04-24T10:24:13;8.63;;;4.18;;
53253;SDS011;39148;53.332;6.922;2023-04-24T10:26:41;7.68;;;4.45;;
53253;SDS011;39148;53.332;6.922;2023-04-24T10:29:07;7.57;;;3.95;;
53253;SDS011;39148;53.332;6.922;2023-04-24T10:31:37;10.85;;;4.18;;
53253;SDS011;39148;53.332;6.922;2023-04-24T10:34:04;13.27;;;4.15;;
53253;SDS011;39148;53.332;6.922;2023-04-24T10:36:31;10.85;;;3.55;;
53253;SDS011;39148;53.332;6.922;2023-04-24T10:38:58;8.65;;;3.97;;
53253;SDS011;39148;53.332;6.922;2023-04-24T10:41:27;8.23;;;3.35;;
53253;SDS011;39148;53.332;6.922;2023-04-24T10:46:39;7.82;;;3.00;;
53253;SDS011;39148;53.332;6.922;2023-04-24T10:49:06;9.13;;;3.10;;
53253;SDS011;39148;53.332;6.922;2023-04-24T10:51:52;10.27;;;3.35;;
53253;SDS011;39148;53.332;6.922;2023-04-24T10:59:44;7.45;;;2.67;;
53253;SDS011;39148;53.332;6.922;2023-04-24T11:02:10;7.15;;;2.85;;
53253;SDS011;39148;53.332;6.922;2023-04-24T11:04:36;7.88;;;2.05;;
53253;SDS011;39148;53.332;6.922;2023-04-24T11:07:02;7.10;;;2.47;;
53253;SDS011;39148;53.332;6.922;2023-04-24T11:09:32;6.40;;;2.20;;
53253;SDS011;39148;53.332;6.922;2023-04-24T11:17:37;7.80;;;2.70;;
53253;SDS011;39148;53.332;6.922;2023-04-24T11:20:09;8.32;;;2.35;;
53253;SDS011;39148;53.332;6.922;2023-04-24T11:22:36;7.15;;;2.20;;
53253;SDS011;39148;53.332;6.922;2023-04-24T11:25:05;8.13;;;2.50;;
53253;SDS011;39148;53.332;6.922;2023-04-24T11:27:39;8.27;;;2.72;;
53253;SDS011;39148;53.332;6.922;2023-04-24T11:30:09;4.97;;;1.73;;
53253;SDS011;39148;53.332;6.922;2023-04-24T11:32:39;8.07;;;2.40;;
53253;SDS011;39148;53.332;6.922;2023-04-24T11:40:02;8.10;;;2.00;;
53253;SDS011;39148;53.332;6.922;2023-04-24T11:42:33;7.47;;;2.00;;
53253;SDS011;39148;53.332;6.922;2023-04-24T11:47:30;6.18;;;2.35;;
53253;SDS011;39148;53.332;6.922;2023-04-24T11:49:58;5.80;;;1.50;;
53253;SDS011;39148;53.332;6.922;2023-04-24T11:52:25;7.82;;;2.08;;
53253;SDS011;39148;53.332;6.922;2023-04-24T11:54:51;7.63;;;1.90;;
53253;SDS011;39148;53.332;6.922;2023-04-24T11:57:20;6.90;;;1.55;;
53253;SDS011;39148;53.332;6.922;2023-04-24T11:59:47;7.18;;;2.03;;
53253;SDS011;39148;53.332;6.922;2023-04-24T12:02:20;4.88;;;1.33;;
53253;SDS011;39148;53.332;6.922;2023-04-24T12:04:46;6.32;;;1.83;;
53253;SDS011;39148;53.332;6.922;2023-04-24T12:07:12;5.68;;;1.27;;
53253;SDS011;39148;53.332;6.922;2023-04-24T12:12:07;7.57;;;1.60;;
53253;SDS011;39148;53.332;6.922;2023-04-24T12:14:50;6.65;;;1.42;;
53253;SDS011;39148;53.332;6.922;2023-04-24T12:19:56;4.63;;;1.10;;
53253;SDS011;39148;53.332;6.922;2023-04-24T12:22:24;7.53;;;1.45;;
53253;SDS011;39148;53.332;6.922;2023-04-24T12:24:56;6.65;;;1.60;;
53253;SDS011;39148;53.332;6.922;2023-04-24T12:27:22;5.75;;;1.30;;
53253;SDS011;39148;53.332;6.922;2023-04-24T12:30:10;5.10;;;1.30;;
53253;SDS011;39148;53.332;6.922;2023-04-24T12:32:40;5.95;;;1.27;;
53253;SDS011;39148;53.332;6.922;2023-04-24T12:35:11;6.10;;;1.20;;
53253;SDS011;39148;53.332;6.922;2023-04-24T12:37:37;5.47;;;1.17;;
53253;SDS011;39148;53.332;6.922;2023-04-24T12:40:08;7.05;;;1.20;;
53253;SDS011;39148;53.332;6.922;2023-04-24T12:42:36;4.45;;;1.00;;
53253;SDS011;39148;53.332;6.922;2023-04-24T12:45:07;3.92;;;1.08;;
53253;SDS011;39148;53.332;6.922;2023-04-24T12:47:33;7.20;;;1.05;;
53253;SDS011;39148;53.332;6.922;2023-04-24T12:50:00;5.13;;;0.98;;
53253;SDS011;39148;53.332;6.922;2023-04-24T12:52:28;5.07;;;1.30;;
53253;SDS011;39148;53.332;6.922;2023-04-24T12:54:55;6.78;;;1.00;;
53253;SDS011;39148;53.332;6.922;2023-04-24T12:57:23;5.38;;;1.52;;
53253;SDS011;39148;53.332;6.922;2023-04-24T12:59:49;7.07;;;1.33;;
53253;SDS011;39148;53.332;6.922;2023-04-24T13:02:15;4.68;;;1.00;;
53253;SDS011;39148;53.332;6.922;2023-04-24T13:04:49;4.13;;;1.02;;
53253;SDS011;39148;53.332;6.922;2023-04-24T13:07:15;5.30;;;0.90;;
53253;SDS011;39148;53.332;6.922;2023-04-24T13:09:42;6.10;;;1.08;;
53253;SDS011;39148;53.332;6.922;2023-04-24T13:12:09;4.53;;;0.82;;
53253;SDS011;39148;53.332;6.922;2023-04-24T13:14:35;5.57;;;0.95;;
53253;SDS011;39148;53.332;6.922;2023-04-24T13:17:01;4.65;;;1.00;;
53253;SDS011;39148;53.332;6.922;2023-04-24T13:19:28;6.15;;;0.95;;
53253;SDS011;39148;53.332;6.922;2023-04-24T13:21:54;5.20;;;1.00;;
53253;SDS011;39148;53.332;6.922;2023-04-24T13:24:24;5.30;;;0.90;;
53253;SDS011;39148;53.332;6.922;2023-04-24T13:26:54;5.18;;;0.75;;
53253;SDS011;39148;53.332;6.922;2023-04-24T13:29:21;3.30;;;0.98;;
53253;SDS011;39148;53.332;6.922;2023-04-24T13:31:49;4.00;;;0.65;;
53253;SDS011;39148;53.332;6.922;2023-04-24T13:34:16;3.78;;;0.80;;
53253;SDS011;39148;53.332;6.922;2023-04-24T13:36:42;4.95;;;0.73;;
53253;SDS011;39148;53.332;6.922;2023-04-24T13:39:08;5.38;;;0.93;;
53253;SDS011;39148;53.332;6.922;2023-04-24T13:41:34;6.63;;;0.80;;
53253;SDS011;39148;53.332;6.922;2023-04-24T13:44:01;6.55;;;0.88;;
53253;SDS011;39148;53.332;6.922;2023-04-24T13:46:31;5.18;;;0.90;;
53253;SDS011;39148;53.332;6.922;2023-04-24T13:48:57;4.32;;;0.60;;
53253;SDS011;39148;53.332;6.922;2023-04-24T13:51:23;3.80;;;0.80;;
53253;SDS011;39148;53.332;6.922;2023-04-24T13:53:52;6.40;;;0.77;;
53253;SDS011;39148;53.332;6.922;2023-04-24T13:56:19;4.85;;;0.80;;
53253;SDS011;39148;53.332;6.922;2023-04-24T13:58:45;2.35;;;0.70;;
53253;SDS011;39148;53.332;6.922;2023-04-24T14:01:11;5.38;;;0.80;;
53253;SDS011;39148;53.332;6.922;2023-04-24T14:03:38;2.97;;;0.50;;
53253;SDS011;39148;53.332;6.922;2023-04-24T14:06:04;2.85;;;0.50;;
53253;SDS011;39148;53.332;6.922;2023-04-24T14:08:31;4.18;;;0.90;;
53253;SDS011;39148;53.332;6.922;2023-04-24T14:10:57;5.18;;;0.80;;
53253;SDS011;39148;53.332;6.922;2023-04-24T14:13:23;3.00;;;0.52;;
53253;SDS011;39148;53.332;6.922;2023-04-24T14:15:49;4.95;;;0.90;;
53253;SDS011;39148;53.332;6.922;2023-04-24T14:18:15;3.85;;;0.70;;
53253;SDS011;39148;53.332;6.922;2023-04-24T14:20:41;4.18;;;0.68;;
53253;SDS011;39148;53.332;6.922;2023-04-24T14:23:06;3.10;;;0.52;;
53253;SDS011;39148;53.332;6.922;2023-04-24T14:25:32;3.88;;;0.70;;
53253;SDS011;39148;53.332;6.922;2023-04-24T14:27:59;3.67;;;0.60;;
53253;SDS011;39148;53.332;6.922;2023-04-24T14:30:25;3.55;;;0.52;;
53253;SDS011;39148;53.332;6.922;2023-04-24T14:32:51;4.53;;;0.63;;
53253;SDS011;39148;53.332;6.922;2023-04-24T14:35:17;4.55;;;0.70;;
53253;SDS011;39148;53.332;6.922;2023-04-24T14:37:43;3.95;;;0.70;;
53253;SDS011;39148;53.332;6.922;2023-04-24T14:40:09;3.45;;;0.60;;
53253;SDS011;39148;53.332;6.922;2023-04-24T14:42:35;2.75;;;0.45;;
53253;SDS011;39148;53.332;6.922;2023-04-24T14:45:01;3.65;;;0.70;;
53253;SDS011;39148;53.332;6.922;2023-04-24T14:47:27;3.40;;;0.43;;
53253;SDS011;39148;53.332;6.922;2023-04-24T14:49:54;3.65;;;0.70;;
53253;SDS011;39148;53.332;6.922;2023-04-24T14:52:20;3.92;;;0.70;;
53253;SDS011;39148;53.332;6.922;2023-04-24T14:54:46;4.05;;;0.75;;
53253;SDS011;39148;53.332;6.922;2023-04-24T14:57:12;3.85;;;0.75;;
53253;SDS011;39148;53.332;6.922;2023-04-24T14:59:38;3.58;;;0.63;;
53253;SDS011;39148;53.332;6.922;2023-04-24T15:02:05;5.80;;;0.73;;
53253;SDS011;39148;53.332;6.922;2023-04-24T15:04:31;5.05;;;0.80;;
53253;SDS011;39148;53.332;6.922;2023-04-24T15:06:57;4.70;;;0.80;;
53253;SDS011;39148;53.332;6.922;2023-04-24T15:09:24;4.68;;;0.60;;
53253;SDS011;39148;53.332;6.922;2023-04-24T15:11:50;4.03;;;0.70;;
53253;SDS011;39148;53.332;6.922;2023-04-24T15:14:16;3.55;;;0.80;;